KCLE/CLE METAR and TAF weather

Enter ICAO airport designator
Station Type Date Time Source
KCLE METAR 2018/12/10 23:51 UTC NOAA

KCLE 102351Z 26006KT 8SM OVC014 M02/M05 A3022 RMK AO2 SLP245 T10171050 10006 21017 50002


Station Type Date Time Source
KCLE Decoded METAR 2018/12/10 23:51 UTC NOAA

CLEVELAND-HOPKINS INTERNATIONAL , OH, United States (KCLE) 41-24N 081-51W 236M
Dec 10, 2018 - 06:51 PM EST / 2018.12.10 2351 UTC
Wind: from the W (260 degrees) at 7 MPH (6 KT):0
Visibility: 8 mile(s):0
Sky conditions: overcast
Temperature: 28.9 F (-1.7 C)
Windchill: 21 F (-6 C):1
Dew Point: 23.0 F (-5.0 C)
Relative Humidity: 78%
Pressure (altimeter): 30.22 in. Hg (1023 hPa)
Pressure tendency: 0.01 inches (0.2 hPa) higher than three hours ago
ob: KCLE 102351Z 26006KT 8SM OVC014 M02/M05 A3022 RMK AO2 SLP245 T10171050 10006 21017 50002
cycle: 0

Station Type Date Time Source
KCLE TAF 2018/12/10 21:45 UTC NOAA

TAF
AMD KCLE 102042Z 1021/1124 26004KT P6SM OVC015
FM110200 21006KT P6SM OVC025
FM111000 21008KT P6SM SCT025 OVC035
FM112300 27008KT P6SM SCT025 OVC035


Example: see airport list